Time,TemperatureF,DewpointF,PressureIn,WindDirection,WindDirectionDegrees,WindSpeedMPH,WindSpeedGustMPH,Humidity,HourlyPrecipIn,Conditions,Clouds,dailyrainin,SoftwareType,DateUTC
2013-10-05 00:22:00,56.0,54.0,29.92,East,95,13.0,20.0,94,0.01,,,0.01,,2013-10-05 05:22:00,
2013-10-05 00:52:00,56.0,55.0,29.92,East,88,14.0,19.0,95,0.01,,,0.02,,2013-10-05 05:52:00,
2013-10-05 01:12:00,56.0,55.0,29.93,East,97,9.0,14.0,95,0.03,,,0.04,,2013-10-05 06:12:00,
2013-10-05 01:22:00,56.0,55.0,29.93,East,84,9.0,13.0,95,0.05,,,0.06,,2013-10-05 06:22:00,
2013-10-05 01:52:00,56.0,55.0,29.93,East,92,11.0,17.0,95,0.12,,,0.14,,2013-10-05 06:52:00,
2013-10-05 02:22:00,55.0,54.0,29.90,NE,39,12.0,16.0,96,0.19,,,0.25,,2013-10-05 07:22:00,
2013-10-05 02:52:00,55.0,54.0,29.89,NNE,29,6.0,13.0,96,0.12,,,0.27,,2013-10-05 07:52:00,
2013-10-05 03:23:00,55.0,54.0,29.87,ENE,57,8.0,13.0,96,0.03,,,0.28,,2013-10-05 08:23:00,
2013-10-05 03:52:00,56.0,55.0,29.87,ENE,59,6.0,12.0,96,0.01,,,0.28,,2013-10-05 08:52:00,
2013-10-05 04:22:00,56.0,55.0,29.84,NE,55,8.0,14.0,96,0.00,,,0.28,,2013-10-05 09:22:00,
2013-10-05 04:54:00,56.0,55.0,29.84,ENE,77,6.0,10.0,97,0.00,,,0.28,,2013-10-05 09:54:00,
2013-10-05 05:23:00,57.0,56.0,29.85,East,101,7.0,12.0,97,0.00,,,0.28,,2013-10-05 10:23:00,
2013-10-05 05:53:00,57.0,56.0,29.86,NE,35,3.0,9.0,97,0.00,,,0.28,,2013-10-05 10:53:00,
2013-10-05 06:22:00,57.0,56.0,29.87,NE,46,4.0,10.0,97,0.00,,,0.28,,2013-10-05 11:22:00,
2013-10-05 06:52:00,58.0,57.0,29.86,East,92,6.0,10.0,97,0.00,,,0.28,,2013-10-05 11:52:00,
2013-10-05 07:22:00,58.0,57.0,29.88,SSE,153,1.0,7.0,97,0.00,,,0.28,,2013-10-05 12:22:00,
2013-10-05 07:52:00,58.0,57.0,29.86,SE,124,10.0,15.0,96,0.01,,,0.28,,2013-10-05 12:52:00,
2013-10-05 08:22:00,58.0,57.0,29.85,East,85,5.0,12.0,96,0.01,,,0.28,,2013-10-05 13:22:00,
2013-10-05 08:42:00,58.0,57.0,29.85,East,101,8.0,12.0,96,0.00,,,0.28,,2013-10-05 13:42:00,
2013-10-05 08:52:00,58.0,57.0,29.85,East,101,10.0,14.0,96,0.00,,,0.28,,2013-10-05 13:52:00,
2013-10-05 09:22:00,58.0,57.0,29.86,ESE,105,7.0,14.0,96,0.01,,,0.30,,2013-10-05 14:22:00,
2013-10-05 09:52:00,58.0,57.0,29.84,ENE,78,10.0,15.0,96,0.01,,,0.30,,2013-10-05 14:52:00,
2013-10-05 10:22:00,58.0,57.0,29.85,East,88,5.0,13.0,96,0.00,,,0.30,,2013-10-05 15:22:00,
2013-10-05 10:53:00,58.0,57.0,29.87,ESE,120,8.0,13.0,96,0.00,,,0.30,,2013-10-05 15:53:00,
2013-10-05 11:23:00,58.0,57.0,29.86,ENE,78,9.0,13.0,97,0.00,,,0.30,,2013-10-05 16:23:00,
2013-10-05 11:43:00,59.0,58.0,29.86,ESE,107,9.0,14.0,97,0.00,,,0.30,,2013-10-05 16:43:00,
2013-10-05 11:53:00,59.0,58.0,29.85,ESE,106,10.0,15.0,97,0.00,,,0.30,,2013-10-05 16:53:00,
2013-10-05 12:22:00,59.0,58.0,29.85,East,99,8.0,14.0,97,0.00,,,0.30,,2013-10-05 17:22:00,
2013-10-05 12:52:00,59.0,58.0,29.84,ESE,106,8.0,13.0,97,0.00,,,0.30,,2013-10-05 17:52:00,
2013-10-05 13:22:00,60.0,59.0,29.83,East,93,8.0,14.0,97,0.00,,,0.30,,2013-10-05 18:22:00,
2013-10-05 13:52:00,60.0,59.0,29.81,East,82,7.0,12.0,97,0.00,,,0.30,,2013-10-05 18:52:00,
2013-10-05 14:22:00,61.0,60.0,29.80,SE,124,8.0,14.0,97,0.00,,,0.30,,2013-10-05 19:22:00,
2013-10-05 14:52:00,61.0,60.0,29.79,East,90,6.0,12.0,97,0.00,,,0.30,,2013-10-05 19:52:00,
2013-10-05 15:22:00,61.0,60.0,29.78,SE,129,4.0,10.0,97,0.00,,,0.30,,2013-10-05 20:22:00,
2013-10-05 15:52:00,61.0,60.0,29.77,ESE,119,4.0,9.0,97,0.01,,,0.31,,2013-10-05 20:52:00,
2013-10-05 16:22:00,61.0,60.0,29.76,ESE,105,0.0,4.0,97,0.03,,,0.33,,2013-10-05 21:22:00,
2013-10-05 16:44:00,61.0,60.0,29.75,ENE,78,2.0,3.0,97,0.04,,,0.34,,2013-10-05 21:44:00,
2013-10-05 16:54:00,61.0,60.0,29.74,ENE,78,1.0,2.0,97,0.03,,,0.34,,2013-10-05 21:54:00,
2013-10-05 17:24:00,61.0,60.0,29.73,ENE,68,1.0,4.0,97,0.02,,,0.35,,2013-10-05 22:24:00,
2013-10-05 17:42:00,61.0,60.0,29.72,NE,56,1.0,4.0,97,0.07,,,0.41,,2013-10-05 22:42:00,
2013-10-05 17:53:00,61.0,60.0,29.72,East,85,2.0,6.0,97,0.12,,,0.46,,2013-10-05 22:53:00,
2013-10-05 18:22:00,61.0,60.0,29.70,SE,125,1.0,4.0,97,0.17,,,0.53,,2013-10-05 23:22:00,
2013-10-05 18:53:00,59.0,58.0,29.73,WSW,253,13.0,19.0,96,0.38,,,0.84,,2013-10-05 23:53:00,
2013-10-05 19:12:00,57.0,56.0,29.73,WNW,287,12.0,18.0,95,0.44,,,0.93,,2013-10-06 00:12:00,
2013-10-05 19:23:00,56.0,54.0,29.75,West,273,8.0,16.0,94,0.43,,,0.98,,2013-10-06 00:23:00,
2013-10-05 19:43:00,55.0,53.0,29.74,West,269,6.0,14.0,94,0.34,,,1.04,,2013-10-06 00:43:00,
2013-10-05 19:52:00,55.0,54.0,29.75,WNW,292,6.0,10.0,95,0.22,,,1.06,,2013-10-06 00:52:00,
2013-10-05 20:22:00,55.0,54.0,29.75,NW,305,3.0,9.0,96,0.07,,,1.06,,2013-10-06 01:22:00,
2013-10-05 20:42:00,55.0,54.0,29.74,NW,308,4.0,9.0,96,0.02,,,1.06,,2013-10-06 01:42:00,
2013-10-05 20:52:00,54.0,53.0,29.74,NNW,343,3.0,9.0,95,0.00,,,1.06,,2013-10-06 01:52:00,
2013-10-05 21:22:00,54.0,53.0,29.74,North,11,0.0,1.0,95,0.00,,,1.06,,2013-10-06 02:22:00,
2013-10-05 21:42:00,53.0,52.0,29.75,SW,217,2.0,5.0,96,0.00,,,1.06,,2013-10-06 02:42:00,
2013-10-05 21:52:00,53.0,52.0,29.76,SW,214,7.0,10.0,96,0.00,,,1.06,,2013-10-06 02:52:00,
2013-10-05 22:22:00,52.0,51.0,29.76,SW,215,7.0,12.0,95,0.00,,,1.06,,2013-10-06 03:22:00,
2013-10-05 22:44:00,52.0,51.0,29.77,SSW,211,3.0,7.0,95,0.00,,,1.06,,2013-10-06 03:44:00,
2013-10-05 22:54:00,51.0,50.0,29.77,WSW,253,2.0,6.0,95,0.00,,,1.06,,2013-10-06 03:54:00,
2013-10-05 23:24:00,51.0,50.0,29.77,SW,232,3.0,5.0,95,0.00,,,1.06,,2013-10-06 04:24:00,
2013-10-05 23:44:00,50.0,49.0,29.76,WSW,256,3.0,6.0,95,0.00,,,1.06,,2013-10-06 04:44:00,
2013-10-05 23:54:00,50.0,49.0,29.75,West,269,4.0,8.0,95,0.00,,,1.06,,2013-10-06 04:54:00,